Terminal Aerodrome Forecast
Issued by NWS

Current Version | Previous Version | Text Only | Print | Product List | Glossary On
Versions: 1 2 3 4 5 6 7 8 9 10 11 12 13 14 15 16 17 18 19 20 21 22 23 24 25 26
000
FTAK31 PAFA 261139
TAFAOR
TAF
PAOR 261139Z 2612/2712 24003KT P6SM VCSH FEW050 FEW090 BKN230
     FM262000 VRB04KT P6SM -SHRA VCTS BKN050CB BKN110
     FM270200 VRB10G25KT 4SM -TSRA BKN030CB OVC100
     FM270600 VRB04KT 5SM -SHRA BR BKN030 OVC080
     FM271000 VRB04KT 2SM -RA BR SCT020 OVC030=

USA.gov is the U.S. government's official web portal to all federal, state and local government web resources and services.